sensor_id;sensor_type;location;lat;lon;timestamp;pressure;altitude;pressure_sealevel;temperature;humidity
72855;BME280;60991;51.278;22.550;2022-12-11T00:00:46;97958.84;;;1.36;77.75
72855;BME280;60991;51.278;22.550;2022-12-11T00:02:17;97956.81;;;1.38;77.44
72855;BME280;60991;51.278;22.550;2022-12-11T00:03:47;97949.56;;;1.40;77.17
72855;BME280;60991;51.278;22.550;2022-12-11T00:05:18;97946.25;;;1.26;77.56
72855;BME280;60991;51.278;22.550;2022-12-11T00:06:48;97939.66;;;1.24;77.78
72855;BME280;60991;51.278;22.550;2022-12-11T00:08:18;97943.47;;;1.21;77.92
72855;BME280;60991;51.278;22.550;2022-12-11T00:10:00;97945.69;;;1.24;77.83
72855;BME280;60991;51.278;22.550;2022-12-11T00:11:31;97939.31;;;1.38;77.77
72855;BME280;60991;51.278;22.550;2022-12-11T00:13:01;97945.72;;;1.43;77.01
72855;BME280;60991;51.278;22.550;2022-12-11T00:14:32;97949.59;;;1.33;77.38
72855;BME280;60991;51.278;22.550;2022-12-11T00:16:03;97956.59;;;1.15;77.88
72855;BME280;60991;51.278;22.550;2022-12-11T00:17:33;97943.09;;;1.18;77.98
72855;BME280;60991;51.278;22.550;2022-12-11T00:19:07;97947.69;;;1.22;77.75
72855;BME280;60991;51.278;22.550;2022-12-11T00:20:40;97945.09;;;1.22;77.82
72855;BME280;60991;51.278;22.550;2022-12-11T00:22:10;97953.31;;;1.26;78.16
72855;BME280;60991;51.278;22.550;2022-12-11T00:23:45;97940.06;;;1.21;77.85
72855;BME280;60991;51.278;22.550;2022-12-11T00:25:15;97941.75;;;1.33;77.51
72855;BME280;60991;51.278;22.550;2022-12-11T00:26:46;97939.22;;;1.27;77.61
72855;BME280;60991;51.278;22.550;2022-12-11T00:28:19;97939.31;;;1.38;77.96
72855;BME280;60991;51.278;22.550;2022-12-11T00:29:52;97936.19;;;1.30;77.51
72855;BME280;60991;51.278;22.550;2022-12-11T00:31:23;97947.31;;;1.19;78.29
72855;BME280;60991;51.278;22.550;2022-12-11T00:32:53;97948.91;;;1.20;78.42
72855;BME280;60991;51.278;22.550;2022-12-11T00:34:24;97943.78;;;1.31;77.85
72855;BME280;60991;51.278;22.550;2022-12-11T00:35:54;97943.28;;;1.23;77.35
72855;BME280;60991;51.278;22.550;2022-12-11T00:37:24;97945.25;;;1.27;77.70
72855;BME280;60991;51.278;22.550;2022-12-11T00:38:54;97937.44;;;1.21;77.65
72855;BME280;60991;51.278;22.550;2022-12-11T00:40:25;97938.47;;;1.20;78.34
72855;BME280;60991;51.278;22.550;2022-12-11T00:41:55;97933.63;;;1.23;77.99
72855;BME280;60991;51.278;22.550;2022-12-11T00:43:25;97937.72;;;1.37;77.81
72855;BME280;60991;51.278;22.550;2022-12-11T00:44:55;97938.47;;;1.45;76.90
72855;BME280;60991;51.278;22.550;2022-12-11T00:46:26;97928.41;;;1.48;76.83
72855;BME280;60991;51.278;22.550;2022-12-11T00:47:56;97933.84;;;1.47;76.63
72855;BME280;60991;51.278;22.550;2022-12-11T00:49:26;97935.56;;;1.53;76.91
72855;BME280;60991;51.278;22.550;2022-12-11T00:50:56;97928.16;;;1.50;76.51
72855;BME280;60991;51.278;22.550;2022-12-11T00:52:27;97931.06;;;1.42;76.97
72855;BME280;60991;51.278;22.550;2022-12-11T00:53:57;97928.09;;;1.31;77.36
72855;BME280;60991;51.278;22.550;2022-12-11T00:55:30;97928.34;;;1.30;77.36
72855;BME280;60991;51.278;22.550;2022-12-11T00:57:00;97930.31;;;1.34;77.50
72855;BME280;60991;51.278;22.550;2022-12-11T00:58:31;97934.31;;;1.37;76.52
72855;BME280;60991;51.278;22.550;2022-12-11T01:00:03;97937.72;;;1.37;76.98
72855;BME280;60991;51.278;22.550;2022-12-11T01:01:33;97932.69;;;1.36;77.11
72855;BME280;60991;51.278;22.550;2022-12-11T01:03:05;97934.09;;;1.38;76.59
72855;BME280;60991;51.278;22.550;2022-12-11T01:04:35;97936.28;;;1.42;76.69
72855;BME280;60991;51.278;22.550;2022-12-11T01:06:06;97937.25;;;1.47;76.30
72855;BME280;60991;51.278;22.550;2022-12-11T01:07:36;97941.81;;;1.52;76.51
72855;BME280;60991;51.278;22.550;2022-12-11T01:09:07;97940.28;;;1.44;76.09
72855;BME280;60991;51.278;22.550;2022-12-11T01:10:37;97939.09;;;1.40;76.35
72855;BME280;60991;51.278;22.550;2022-12-11T01:12:07;97930.22;;;1.48;76.06
72855;BME280;60991;51.278;22.550;2022-12-11T01:13:38;97939.69;;;1.42;76.61
72855;BME280;60991;51.278;22.550;2022-12-11T01:15:08;97940.16;;;1.32;77.28
72855;BME280;60991;51.278;22.550;2022-12-11T01:16:39;97933.03;;;1.21;77.43
72855;BME280;60991;51.278;22.550;2022-12-11T01:18:11;97924.75;;;1.24;77.36
72855;BME280;60991;51.278;22.550;2022-12-11T01:19:41;97923.16;;;1.23;77.50
72855;BME280;60991;51.278;22.550;2022-12-11T01:21:12;97913.88;;;1.27;77.58
72855;BME280;60991;51.278;22.550;2022-12-11T01:22:42;97917.66;;;1.31;77.13
72855;BME280;60991;51.278;22.550;2022-12-11T01:24:13;97915.50;;;1.28;76.57
72855;BME280;60991;51.278;22.550;2022-12-11T01:25:43;97919.13;;;1.27;77.47
72855;BME280;60991;51.278;22.550;2022-12-11T01:27:13;97912.91;;;1.22;77.33
72855;BME280;60991;51.278;22.550;2022-12-11T01:28:44;97922.06;;;1.31;76.96
72855;BME280;60991;51.278;22.550;2022-12-11T01:30:14;97919.00;;;1.16;77.65
72855;BME280;60991;51.278;22.550;2022-12-11T01:31:44;97905.78;;;1.11;77.50
72855;BME280;60991;51.278;22.550;2022-12-11T01:33:14;97911.00;;;1.11;77.65
72855;BME280;60991;51.278;22.550;2022-12-11T01:34:45;97912.84;;;1.03;77.36
72855;BME280;60991;51.278;22.550;2022-12-11T01:36:20;97911.47;;;1.01;77.96
72855;BME280;60991;51.278;22.550;2022-12-11T01:37:50;97893.44;;;0.93;78.14
72855;BME280;60991;51.278;22.550;2022-12-11T01:39:21;97904.63;;;1.00;78.22
72855;BME280;60991;51.278;22.550;2022-12-11T01:40:51;97900.50;;;0.92;78.10
72855;BME280;60991;51.278;22.550;2022-12-11T01:42:21;97897.22;;;0.97;77.81
72855;BME280;60991;51.278;22.550;2022-12-11T01:44:04;97902.63;;;1.02;77.97
72855;BME280;60991;51.278;22.550;2022-12-11T01:45:39;97894.66;;;1.15;77.00
72855;BME280;60991;51.278;22.550;2022-12-11T01:47:11;97885.81;;;1.16;77.02
72855;BME280;60991;51.278;22.550;2022-12-11T01:48:41;97888.91;;;1.07;77.70
72855;BME280;60991;51.278;22.550;2022-12-11T01:50:11;97876.50;;;1.02;77.33
72855;BME280;60991;51.278;22.550;2022-12-11T01:53:22;97879.53;;;0.99;77.48
72855;BME280;60991;51.278;22.550;2022-12-11T01:54:54;97881.75;;;0.95;77.62
72855;BME280;60991;51.278;22.550;2022-12-11T01:56:25;97875.81;;;0.88;78.24
72855;BME280;60991;51.278;22.550;2022-12-11T01:57:59;97871.09;;;0.97;77.46
72855;BME280;60991;51.278;22.550;2022-12-11T01:59:35;97873.66;;;1.03;76.79
72855;BME280;60991;51.278;22.550;2022-12-11T02:01:08;97870.41;;;0.83;77.93
72855;BME280;60991;51.278;22.550;2022-12-11T02:02:41;97876.84;;;0.81;77.47
72855;BME280;60991;51.278;22.550;2022-12-11T02:04:12;97869.81;;;0.81;78.17
72855;BME280;60991;51.278;22.550;2022-12-11T02:05:43;97870.41;;;0.83;78.23
72855;BME280;60991;51.278;22.550;2022-12-11T02:07:14;97866.53;;;0.92;77.73
72855;BME280;60991;51.278;22.550;2022-12-11T02:08:44;97860.72;;;0.90;77.69
72855;BME280;60991;51.278;22.550;2022-12-11T02:10:15;97861.88;;;0.94;77.29
72855;BME280;60991;51.278;22.550;2022-12-11T02:12:14;97859.91;;;0.90;77.01
72855;BME280;60991;51.278;22.550;2022-12-11T02:13:50;97863.84;;;0.99;76.89
72855;BME280;60991;51.278;22.550;2022-12-11T02:15:36;97856.28;;;0.91;77.74
72855;BME280;60991;51.278;22.550;2022-12-11T02:17:16;97860.25;;;0.93;77.58
72855;BME280;60991;51.278;22.550;2022-12-11T02:19:01;97850.31;;;0.84;77.65
72855;BME280;60991;51.278;22.550;2022-12-11T02:20:49;97847.50;;;0.85;77.38
72855;BME280;60991;51.278;22.550;2022-12-11T02:24:18;97840.88;;;0.83;77.91
72855;BME280;60991;51.278;22.550;2022-12-11T02:28:29;97847.88;;;0.89;77.42
72855;BME280;60991;51.278;22.550;2022-12-11T02:30:09;97843.28;;;0.84;77.39
72855;BME280;60991;51.278;22.550;2022-12-11T02:31:45;97840.03;;;0.89;77.31
72855;BME280;60991;51.278;22.550;2022-12-11T02:33:22;97834.09;;;1.00;77.18
72855;BME280;60991;51.278;22.550;2022-12-11T02:35:16;97833.34;;;0.93;76.89
72855;BME280;60991;51.278;22.550;2022-12-11T02:36:51;97841.03;;;0.88;77.57
72855;BME280;60991;51.278;22.550;2022-12-11T02:38:31;97833.00;;;0.89;77.94
72855;BME280;60991;51.278;22.550;2022-12-11T02:40:05;97835.66;;;1.08;76.98
72855;BME280;60991;51.278;22.550;2022-12-11T02:41:39;97837.09;;;1.03;76.72
72855;BME280;60991;51.278;22.550;2022-12-11T02:43:15;97834.25;;;1.05;77.00
72855;BME280;60991;51.278;22.550;2022-12-11T02:44:47;97826.13;;;1.13;76.93
72855;BME280;60991;51.278;22.550;2022-12-11T02:46:19;97822.50;;;1.14;77.19
72855;BME280;60991;51.278;22.550;2022-12-11T02:47:51;97822.88;;;1.18;76.63
72855;BME280;60991;51.278;22.550;2022-12-11T02:49:22;97830.00;;;1.11;76.74
72855;BME280;60991;51.278;22.550;2022-12-11T02:50:56;97826.34;;;1.12;76.58
72855;BME280;60991;51.278;22.550;2022-12-11T02:52:28;97828.75;;;1.13;76.36
72855;BME280;60991;51.278;22.550;2022-12-11T02:54:01;97825.50;;;1.18;76.21
72855;BME280;60991;51.278;22.550;2022-12-11T02:55:32;97825.88;;;1.21;76.21
72855;BME280;60991;51.278;22.550;2022-12-11T02:57:10;97822.03;;;1.24;76.08
72855;BME280;60991;51.278;22.550;2022-12-11T02:58:53;97820.38;;;1.29;75.35
72855;BME280;60991;51.278;22.550;2022-12-11T03:00:24;97813.09;;;1.31;75.87
72855;BME280;60991;51.278;22.550;2022-12-11T03:01:54;97815.94;;;1.30;76.01
72855;BME280;60991;51.278;22.550;2022-12-11T03:03:24;97813.75;;;1.27;76.04
72855;BME280;60991;51.278;22.550;2022-12-11T03:04:56;97817.06;;;1.16;76.15
72855;BME280;60991;51.278;22.550;2022-12-11T03:06:35;97808.59;;;1.20;76.63
72855;BME280;60991;51.278;22.550;2022-12-11T03:08:05;97802.28;;;1.28;76.20
72855;BME280;60991;51.278;22.550;2022-12-11T03:09:35;97805.72;;;1.28;76.33
72855;BME280;60991;51.278;22.550;2022-12-11T03:11:10;97799.47;;;1.29;75.78
72855;BME280;60991;51.278;22.550;2022-12-11T03:12:42;97795.94;;;1.17;76.49
72855;BME280;60991;51.278;22.550;2022-12-11T03:14:14;97787.16;;;1.12;76.64
72855;BME280;60991;51.278;22.550;2022-12-11T03:15:55;97780.06;;;1.19;76.52
72855;BME280;60991;51.278;22.550;2022-12-11T03:19:28;97778.84;;;1.21;76.40
72855;BME280;60991;51.278;22.550;2022-12-11T03:21:16;97780.66;;;1.21;76.19
72855;BME280;60991;51.278;22.550;2022-12-11T03:22:56;97784.63;;;1.23;76.13
72855;BME280;60991;51.278;22.550;2022-12-11T03:26:08;97776.16;;;1.10;76.24
72855;BME280;60991;51.278;22.550;2022-12-11T03:27:52;97777.75;;;1.11;76.18
72855;BME280;60991;51.278;22.550;2022-12-11T03:29:30;97781.72;;;1.13;76.32
72855;BME280;60991;51.278;22.550;2022-12-11T03:31:04;97787.59;;;1.09;76.57
72855;BME280;60991;51.278;22.550;2022-12-11T03:32:41;97785.41;;;1.06;76.65
72855;BME280;60991;51.278;22.550;2022-12-11T03:34:23;97792.97;;;1.14;76.04
72855;BME280;60991;51.278;22.550;2022-12-11T03:36:00;97791.94;;;1.15;75.93
72855;BME280;60991;51.278;22.550;2022-12-11T03:37:35;97785.28;;;1.19;76.30
72855;BME280;60991;51.278;22.550;2022-12-11T03:39:14;97779.47;;;1.17;75.96
72855;BME280;60991;51.278;22.550;2022-12-11T03:40:48;97775.19;;;1.22;75.75
72855;BME280;60991;51.278;22.550;2022-12-11T03:42:22;97783.03;;;1.22;75.82
72855;BME280;60991;51.278;22.550;2022-12-11T03:43:55;97783.19;;;1.27;75.40
72855;BME280;60991;51.278;22.550;2022-12-11T03:45:27;97785.13;;;1.32;75.67
72855;BME280;60991;51.278;22.550;2022-12-11T03:47:00;97787.53;;;1.33;75.52
72855;BME280;60991;51.278;22.550;2022-12-11T03:48:36;97791.63;;;1.29;75.06
72855;BME280;60991;51.278;22.550;2022-12-11T03:50:10;97790.16;;;1.33;75.47
72855;BME280;60991;51.278;22.550;2022-12-11T03:51:43;97786.47;;;1.23;75.66
72855;BME280;60991;51.278;22.550;2022-12-11T03:53:17;97784.31;;;1.13;76.12
72855;BME280;60991;51.278;22.550;2022-12-11T03:54:49;97783.53;;;1.13;75.96
72855;BME280;60991;51.278;22.550;2022-12-11T03:56:21;97780.13;;;1.12;75.82
72855;BME280;60991;51.278;22.550;2022-12-11T03:57:52;97775.69;;;1.13;76.13
72855;BME280;60991;51.278;22.550;2022-12-11T03:59:23;97775.25;;;1.16;76.17
72855;BME280;60991;51.278;22.550;2022-12-11T04:00:53;97764.59;;;1.17;75.83
72855;BME280;60991;51.278;22.550;2022-12-11T04:02:23;97766.56;;;1.22;75.51
72855;BME280;60991;51.278;22.550;2022-12-11T04:03:54;97766.03;;;1.13;76.04
72855;BME280;60991;51.278;22.550;2022-12-11T04:05:24;97766.84;;;1.14;75.99
72855;BME280;60991;51.278;22.550;2022-12-11T04:06:54;97765.81;;;1.15;76.06
72855;BME280;60991;51.278;22.550;2022-12-11T04:08:24;97757.25;;;1.08;75.93
72855;BME280;60991;51.278;22.550;2022-12-11T04:09:55;97762.75;;;0.99;76.22
72855;BME280;60991;51.278;22.550;2022-12-11T04:11:25;97762.97;;;0.98;76.17
72855;BME280;60991;51.278;22.550;2022-12-11T04:12:55;97756.50;;;0.82;77.00
72855;BME280;60991;51.278;22.550;2022-12-11T04:14:25;97752.44;;;0.86;76.52
72855;BME280;60991;51.278;22.550;2022-12-11T04:15:56;97753.41;;;0.92;76.79
72855;BME280;60991;51.278;22.550;2022-12-11T04:17:28;97751.06;;;0.84;77.25
72855;BME280;60991;51.278;22.550;2022-12-11T04:18:58;97755.34;;;0.96;76.71
72855;BME280;60991;51.278;22.550;2022-12-11T04:20:28;97755.22;;;0.91;76.71
72855;BME280;60991;51.278;22.550;2022-12-11T04:21:59;97753.91;;;1.00;76.64
72855;BME280;60991;51.278;22.550;2022-12-11T04:23:29;97752.47;;;1.04;76.53
72855;BME280;60991;51.278;22.550;2022-12-11T04:25:05;97749.13;;;0.97;77.17
72855;BME280;60991;51.278;22.550;2022-12-11T04:26:36;97751.66;;;1.04;77.08
72855;BME280;60991;51.278;22.550;2022-12-11T04:28:06;97751.81;;;1.09;76.75
72855;BME280;60991;51.278;22.550;2022-12-11T04:29:39;97751.03;;;1.09;76.60
72855;BME280;60991;51.278;22.550;2022-12-11T04:31:15;97743.09;;;0.97;77.06
72855;BME280;60991;51.278;22.550;2022-12-11T04:32:46;97744.25;;;1.01;76.52
72855;BME280;60991;51.278;22.550;2022-12-11T04:34:16;97737.72;;;0.92;76.81
72855;BME280;60991;51.278;22.550;2022-12-11T04:35:46;97736.41;;;1.01;76.66
72855;BME280;60991;51.278;22.550;2022-12-11T04:37:17;97729.38;;;1.01;76.67
72855;BME280;60991;51.278;22.550;2022-12-11T04:38:47;97732.25;;;0.93;76.59
72855;BME280;60991;51.278;22.550;2022-12-11T04:40:18;97731.84;;;0.96;77.13
72855;BME280;60991;51.278;22.550;2022-12-11T04:41:48;97727.41;;;0.97;76.95
72855;BME280;60991;51.278;22.550;2022-12-11T04:43:19;97719.78;;;0.95;77.07
72855;BME280;60991;51.278;22.550;2022-12-11T04:44:49;97718.34;;;0.99;77.11
72855;BME280;60991;51.278;22.550;2022-12-11T04:46:21;97715.88;;;1.04;76.29
72855;BME280;60991;51.278;22.550;2022-12-11T04:48:00;97711.09;;;1.01;76.27
72855;BME280;60991;51.278;22.550;2022-12-11T04:49:31;97702.31;;;0.96;76.45
72855;BME280;60991;51.278;22.550;2022-12-11T04:51:01;97700.91;;;0.93;76.48
72855;BME280;60991;51.278;22.550;2022-12-11T04:52:31;97690.03;;;0.96;76.45
72855;BME280;60991;51.278;22.550;2022-12-11T04:54:02;97691.44;;;0.99;76.38
72855;BME280;60991;51.278;22.550;2022-12-11T04:55:32;97682.72;;;0.87;76.39
72855;BME280;60991;51.278;22.550;2022-12-11T04:57:02;97681.91;;;0.68;77.48
72855;BME280;60991;51.278;22.550;2022-12-11T04:58:33;97681.91;;;0.68;77.44
72855;BME280;60991;51.278;22.550;2022-12-11T05:00:05;97683.72;;;0.67;77.45
72855;BME280;60991;51.278;22.550;2022-12-11T05:01:36;97673.78;;;0.76;77.29
72855;BME280;60991;51.278;22.550;2022-12-11T05:03:07;97681.56;;;0.83;76.94
72855;BME280;60991;51.278;22.550;2022-12-11T05:04:37;97676.28;;;0.89;77.19
72855;BME280;60991;51.278;22.550;2022-12-11T05:06:09;97679.69;;;0.90;76.55
72855;BME280;60991;51.278;22.550;2022-12-11T05:07:39;97678.44;;;0.92;76.50
72855;BME280;60991;51.278;22.550;2022-12-11T05:09:11;97680.91;;;0.87;76.66
72855;BME280;60991;51.278;22.550;2022-12-11T05:10:41;97683.41;;;0.76;76.82
72855;BME280;60991;51.278;22.550;2022-12-11T05:12:11;97676.13;;;0.84;76.57
72855;BME280;60991;51.278;22.550;2022-12-11T05:13:42;97671.84;;;0.72;77.10
72855;BME280;60991;51.278;22.550;2022-12-11T05:15:13;97668.63;;;0.69;77.33
72855;BME280;60991;51.278;22.550;2022-12-11T05:16:43;97659.91;;;0.76;77.19
72855;BME280;60991;51.278;22.550;2022-12-11T05:18:13;97663.28;;;0.83;76.65
72855;BME280;60991;51.278;22.550;2022-12-11T05:19:46;97659.66;;;0.84;76.84
72855;BME280;60991;51.278;22.550;2022-12-11T05:21:16;97654.63;;;0.82;76.85
72855;BME280;60991;51.278;22.550;2022-12-11T05:22:46;97657.88;;;0.78;77.29
72855;BME280;60991;51.278;22.550;2022-12-11T05:24:17;97649.47;;;0.76;77.59
72855;BME280;60991;51.278;22.550;2022-12-11T05:25:54;97651.75;;;0.72;77.27
72855;BME280;60991;51.278;22.550;2022-12-11T05:27:25;97650.28;;;0.76;77.72
72855;BME280;60991;51.278;22.550;2022-12-11T05:28:55;97647.31;;;0.73;77.14
72855;BME280;60991;51.278;22.550;2022-12-11T05:30:26;97643.44;;;0.75;77.24
72855;BME280;60991;51.278;22.550;2022-12-11T05:31:56;97648.19;;;0.85;76.82
72855;BME280;60991;51.278;22.550;2022-12-11T05:33:27;97651.00;;;0.83;76.55
72855;BME280;60991;51.278;22.550;2022-12-11T05:34:57;97650.00;;;0.84;77.14
72855;BME280;60991;51.278;22.550;2022-12-11T05:36:31;97641.63;;;0.94;76.63
72855;BME280;60991;51.278;22.550;2022-12-11T05:38:01;97645.94;;;0.88;76.93
72855;BME280;60991;51.278;22.550;2022-12-11T05:39:31;97639.28;;;0.74;76.97
72855;BME280;60991;51.278;22.550;2022-12-11T05:41:04;97640.72;;;0.70;76.83
72855;BME280;60991;51.278;22.550;2022-12-11T05:42:34;97629.59;;;0.56;77.42
72855;BME280;60991;51.278;22.550;2022-12-11T05:44:05;97640.69;;;0.52;77.33
72855;BME280;60991;51.278;22.550;2022-12-11T05:45:35;97634.91;;;0.50;77.24
72855;BME280;60991;51.278;22.550;2022-12-11T05:47:05;97643.38;;;0.45;77.48
72855;BME280;60991;51.278;22.550;2022-12-11T05:48:36;97645.75;;;0.47;77.21
72855;BME280;60991;51.278;22.550;2022-12-11T05:50:07;97656.28;;;0.58;77.33
72855;BME280;60991;51.278;22.550;2022-12-11T05:51:37;97647.38;;;0.66;77.04
72855;BME280;60991;51.278;22.550;2022-12-11T05:53:08;97647.97;;;0.68;77.13
72855;BME280;60991;51.278;22.550;2022-12-11T05:54:38;97656.44;;;0.63;77.58
72855;BME280;60991;51.278;22.550;2022-12-11T05:56:28;97647.31;;;0.73;77.40
72855;BME280;60991;51.278;22.550;2022-12-11T05:57:59;97657.31;;;0.76;76.54
72855;BME280;60991;51.278;22.550;2022-12-11T05:59:34;97660.28;;;0.79;76.78
72855;BME280;60991;51.278;22.550;2022-12-11T06:01:09;97657.63;;;0.86;76.69
72855;BME280;60991;51.278;22.550;2022-12-11T06:02:40;97660.44;;;0.84;76.69
72855;BME280;60991;51.278;22.550;2022-12-11T06:04:11;97662.25;;;0.84;76.66
72855;BME280;60991;51.278;22.550;2022-12-11T06:05:42;97660.72;;;0.94;76.00
72855;BME280;60991;51.278;22.550;2022-12-11T06:07:12;97654.63;;;1.00;75.64
72855;BME280;60991;51.278;22.550;2022-12-11T06:08:42;97653.78;;;1.07;76.02
72855;BME280;60991;51.278;22.550;2022-12-11T06:10:12;97650.72;;;1.10;75.77
72855;BME280;60991;51.278;22.550;2022-12-11T06:11:43;97646.72;;;1.07;75.86
72855;BME280;60991;51.278;22.550;2022-12-11T06:13:14;97642.94;;;1.03;75.61
72855;BME280;60991;51.278;22.550;2022-12-11T06:14:44;97649.94;;;0.91;76.10
72855;BME280;60991;51.278;22.550;2022-12-11T06:16:14;97643.25;;;0.77;76.40
72855;BME280;60991;51.278;22.550;2022-12-11T06:17:45;97643.53;;;0.87;75.89
72855;BME280;60991;51.278;22.550;2022-12-11T06:19:16;97637.66;;;0.91;75.89
72855;BME280;60991;51.278;22.550;2022-12-11T06:20:46;97643.91;;;0.90;76.02
72855;BME280;60991;51.278;22.550;2022-12-11T06:22:16;97645.50;;;0.91;76.36
72855;BME280;60991;51.278;22.550;2022-12-11T06:23:48;97639.28;;;0.92;75.88
72855;BME280;60991;51.278;22.550;2022-12-11T06:25:19;97633.31;;;1.03;75.33
72855;BME280;60991;51.278;22.550;2022-12-11T06:26:49;97634.16;;;0.97;75.84
72855;BME280;60991;51.278;22.550;2022-12-11T06:28:19;97632.13;;;0.99;75.13
72855;BME280;60991;51.278;22.550;2022-12-11T06:29:50;97621.84;;;1.04;75.25
72855;BME280;60991;51.278;22.550;2022-12-11T06:31:20;97621.28;;;0.84;76.03
72855;BME280;60991;51.278;22.550;2022-12-11T06:32:50;97623.03;;;0.90;76.17
72855;BME280;60991;51.278;22.550;2022-12-11T06:34:20;97620.03;;;0.87;75.91
72855;BME280;60991;51.278;22.550;2022-12-11T06:35:51;97607.41;;;0.84;76.09
72855;BME280;60991;51.278;22.550;2022-12-11T06:37:21;97610.28;;;0.94;75.73
72855;BME280;60991;51.278;22.550;2022-12-11T06:38:52;97610.53;;;0.92;75.65
72855;BME280;60991;51.278;22.550;2022-12-11T06:40:23;97604.50;;;0.92;75.48
72855;BME280;60991;51.278;22.550;2022-12-11T06:41:53;97604.84;;;0.95;75.26
72855;BME280;60991;51.278;22.550;2022-12-11T06:43:24;97607.13;;;0.92;75.14
72855;BME280;60991;51.278;22.550;2022-12-11T06:44:54;97596.00;;;0.96;75.26
72855;BME280;60991;51.278;22.550;2022-12-11T06:46:24;97604.78;;;1.02;75.02
72855;BME280;60991;51.278;22.550;2022-12-11T06:47:54;97594.75;;;0.99;75.36
72855;BME280;60991;51.278;22.550;2022-12-11T06:49:25;97593.03;;;0.93;75.38
72855;BME280;60991;51.278;22.550;2022-12-11T06:50:55;97587.53;;;0.83;76.13
72855;BME280;60991;51.278;22.550;2022-12-11T06:52:25;97586.31;;;0.85;75.51
72855;BME280;60991;51.278;22.550;2022-12-11T06:53:56;97588.31;;;0.83;75.26
72855;BME280;60991;51.278;22.550;2022-12-11T06:55:26;97577.84;;;0.72;76.24
72855;BME280;60991;51.278;22.550;2022-12-11T06:56:56;97577.63;;;0.73;76.00
72855;BME280;60991;51.278;22.550;2022-12-11T06:58:26;97576.34;;;0.76;75.60
72855;BME280;60991;51.278;22.550;2022-12-11T06:59:57;97575.06;;;0.66;76.16
72855;BME280;60991;51.278;22.550;2022-12-11T07:01:27;97578.31;;;0.62;76.26
72855;BME280;60991;51.278;22.550;2022-12-11T07:02:58;97577.09;;;0.64;75.75
72855;BME280;60991;51.278;22.550;2022-12-11T07:04:28;97566.50;;;0.59;75.92
72855;BME280;60991;51.278;22.550;2022-12-11T07:06:02;97565.38;;;0.55;76.37
72855;BME280;60991;51.278;22.550;2022-12-11T07:07:33;97562.38;;;0.52;76.07
72855;BME280;60991;51.278;22.550;2022-12-11T07:09:04;97563.78;;;0.54;76.35
72855;BME280;60991;51.278;22.550;2022-12-11T07:10:35;97560.91;;;0.56;76.01
72855;BME280;60991;51.278;22.550;2022-12-11T07:12:05;97558.66;;;0.59;75.96
72855;BME280;60991;51.278;22.550;2022-12-11T07:13:36;97564.56;;;0.55;76.13
72855;BME280;60991;51.278;22.550;2022-12-11T07:15:06;97561.22;;;0.66;75.88
72855;BME280;60991;51.278;22.550;2022-12-11T07:16:37;97562.59;;;0.68;75.81
72855;BME280;60991;51.278;22.550;2022-12-11T07:18:07;97564.78;;;0.72;75.70
72855;BME280;60991;51.278;22.550;2022-12-11T07:19:37;97566.38;;;0.73;76.21
72855;BME280;60991;51.278;22.550;2022-12-11T07:21:09;97565.69;;;0.77;75.74
72855;BME280;60991;51.278;22.550;2022-12-11T07:22:40;97560.94;;;0.74;75.98
72855;BME280;60991;51.278;22.550;2022-12-11T07:24:11;97558.75;;;0.71;75.64
72855;BME280;60991;51.278;22.550;2022-12-11T07:25:41;97561.50;;;0.58;76.31
72855;BME280;60991;51.278;22.550;2022-12-11T07:27:11;97565.38;;;0.55;75.88
72855;BME280;60991;51.278;22.550;2022-12-11T07:28:42;97552.16;;;0.68;76.20
72855;BME280;60991;51.278;22.550;2022-12-11T07:30:12;97557.00;;;0.65;76.31
72855;BME280;60991;51.278;22.550;2022-12-11T07:31:43;97550.78;;;0.66;76.19
72855;BME280;60991;51.278;22.550;2022-12-11T07:33:13;97553.59;;;0.64;76.11
72855;BME280;60991;51.278;22.550;2022-12-11T07:34:43;97547.94;;;0.67;75.84
72855;BME280;60991;51.278;22.550;2022-12-11T07:36:14;97542.72;;;0.67;75.69
72855;BME280;60991;51.278;22.550;2022-12-11T07:37:44;97551.72;;;0.72;75.78
72855;BME280;60991;51.278;22.550;2022-12-11T07:39:14;97535.47;;;0.69;75.90
72855;BME280;60991;51.278;22.550;2022-12-11T07:40:45;97538.28;;;0.68;75.79
72855;BME280;60991;51.278;22.550;2022-12-11T07:42:15;97532.06;;;0.69;75.79
72855;BME280;60991;51.278;22.550;2022-12-11T07:43:45;97531.03;;;0.70;76.00
72855;BME280;60991;51.278;22.550;2022-12-11T07:45:16;97526.63;;;0.71;75.88
72855;BME280;60991;51.278;22.550;2022-12-11T07:46:46;97529.00;;;0.72;76.09
72855;BME280;60991;51.278;22.550;2022-12-11T07:48:16;97524.44;;;0.67;75.39
72855;BME280;60991;51.278;22.550;2022-12-11T07:49:47;97517.84;;;0.65;76.01
72855;BME280;60991;51.278;22.550;2022-12-11T07:51:20;97520.66;;;0.63;75.86
72855;BME280;60991;51.278;22.550;2022-12-11T07:52:50;97512.34;;;0.73;75.21
72855;BME280;60991;51.278;22.550;2022-12-11T07:54:20;97507.75;;;0.68;75.88
72855;BME280;60991;51.278;22.550;2022-12-11T07:55:51;97510.06;;;0.77;75.28
72855;BME280;60991;51.278;22.550;2022-12-11T07:57:21;97502.00;;;0.78;75.48
72855;BME280;60991;51.278;22.550;2022-12-11T07:58:51;97503.00;;;0.77;75.80
72855;BME280;60991;51.278;22.550;2022-12-11T08:00:21;97509.19;;;0.83;75.25
72855;BME280;60991;51.278;22.550;2022-12-11T08:01:52;97496.19;;;0.76;75.06
72855;BME280;60991;51.278;22.550;2022-12-11T08:03:22;97493.81;;;0.75;75.27
72855;BME280;60991;51.278;22.550;2022-12-11T08:04:53;97489.06;;;0.72;75.25
72855;BME280;60991;51.278;22.550;2022-12-11T08:06:25;97491.09;;;0.69;75.27
72855;BME280;60991;51.278;22.550;2022-12-11T08:07:56;97497.56;;;0.79;75.09
72855;BME280;60991;51.278;22.550;2022-12-11T08:09:26;97485.75;;;0.76;75.13
72855;BME280;60991;51.278;22.550;2022-12-11T08:11:00;97485.41;;;0.73;75.22
72855;BME280;60991;51.278;22.550;2022-12-11T08:12:30;97485.63;;;0.71;74.82
72855;BME280;60991;51.278;22.550;2022-12-11T08:14:00;97477.13;;;0.76;74.96
72855;BME280;60991;51.278;22.550;2022-12-11T08:15:31;97468.75;;;0.74;74.98
72855;BME280;60991;51.278;22.550;2022-12-11T08:17:01;97460.19;;;0.66;75.18